VRG2340 PKWA-PKMJ
Flight info
| Callsign | VRG2340 |
|---|---|
| Flight time | 0h 44m |
| Altitude | 29000 |
| Route | CURCH WOZTI |
| Aircraft | B738/M-SDE2E3FGHIRWXY/LB1 |
Departure
| Time | 2026-04-28 01:01 |
|---|---|
| Airport | Bucholz Army Air Field (PKWA) |
Arrival
| Time | 2026-04-28 01:46 |
|---|---|
| Airport | Marshall Islands International Airport (PKMJ) |
| Time | Latitude | Longitude | Altitude | Speed | Heading |
|---|---|---|---|---|---|
| 2026-04-28 00:36 | 8.72691 | 167.74087 | 44 ft | 0 kts | 116° |
| 2026-04-28 00:50 | 8.72691 | 167.74086 | 44 ft | 0 kts | 116° |
| 2026-04-28 00:53 | 8.72688 | 167.74092 | 43 ft | 3 kts | 116° |
| 2026-04-28 00:53 | 8.72668 | 167.74138 | 37 ft | 12 kts | 114° |
| 2026-04-28 00:53 | 8.72628 | 167.74167 | 31 ft | 3 kts | 178° |
| 2026-04-28 00:53 | 8.72614 | 167.74165 | 32 ft | 0 kts | 195° |
| 2026-04-28 00:54 | 8.72606 | 167.74159 | 33 ft | 3 kts | 229° |
| 2026-04-28 00:54 | 8.72596 | 167.74129 | 36 ft | 5 kts | 256° |
| 2026-04-28 00:54 | 8.72589 | 167.74087 | 40 ft | 6 kts | 263° |
| 2026-04-28 00:54 | 8.72579 | 167.74034 | 43 ft | 11 kts | 257° |
| 2026-04-28 00:55 | 8.72564 | 167.73969 | 45 ft | 8 kts | 257° |
| 2026-04-28 00:55 | 8.72525 | 167.73927 | 41 ft | 11 kts | 174° |
| 2026-04-28 00:55 | 8.72430 | 167.73940 | 33 ft | 16 kts | 187° |
| 2026-04-28 00:55 | 8.72344 | 167.73863 | 28 ft | 18 kts | 252° |
| 2026-04-28 00:56 | 8.72303 | 167.73738 | 24 ft | 19 kts | 253° |
| 2026-04-28 00:56 | 8.72267 | 167.73619 | 20 ft | 17 kts | 252° |
| 2026-04-28 00:56 | 8.72230 | 167.73500 | 17 ft | 18 kts | 253° |
| 2026-04-28 00:56 | 8.72191 | 167.73378 | 15 ft | 18 kts | 252° |
| 2026-04-28 00:57 | 8.72153 | 167.73254 | 14 ft | 18 kts | 253° |
| 2026-04-28 00:57 | 8.72118 | 167.73138 | 15 ft | 17 kts | 253° |
| 2026-04-28 00:57 | 8.72081 | 167.73022 | 17 ft | 17 kts | 252° |
| 2026-04-28 00:57 | 8.72043 | 167.72900 | 20 ft | 18 kts | 252° |
| 2026-04-28 00:58 | 8.72004 | 167.72774 | 21 ft | 19 kts | 253° |
| 2026-04-28 00:58 | 8.71970 | 167.72661 | 23 ft | 17 kts | 253° |
| 2026-04-28 00:58 | 8.71933 | 167.72540 | 23 ft | 18 kts | 252° |
| 2026-04-28 00:58 | 8.71892 | 167.72411 | 23 ft | 16 kts | 253° |
| 2026-04-28 00:59 | 8.71859 | 167.72305 | 23 ft | 12 kts | 234° |
| 2026-04-28 00:59 | 8.71830 | 167.72290 | 23 ft | 0 kts | 183° |
| 2026-04-28 01:00 | 8.71825 | 167.72290 | 23 ft | 3 kts | 182° |
| 2026-04-28 01:00 | 8.71780 | 167.72296 | 22 ft | 6 kts | 170° |
| 2026-04-28 01:00 | 8.71756 | 167.72324 | 22 ft | 4 kts | 105° |
| 2026-04-28 01:00 | 8.71758 | 167.72339 | 23 ft | 0 kts | 72° |
| 2026-04-28 01:01 | 8.71761 | 167.72347 | 23 ft | 15 kts | 72° |
| 2026-04-28 01:01 | 8.71884 | 167.72745 | 21 ft | 102 kts | 71° |
| 2026-04-28 01:01 | 8.72165 | 167.73680 | 138 ft | 163 kts | 74° |
| 2026-04-28 01:01 | 8.72505 | 167.74745 | 1054 ft | 167 kts | 73° |
| 2026-04-28 01:02 | 8.72840 | 167.75792 | 2164 ft | 156 kts | 72° |
| 2026-04-28 01:02 | 8.73204 | 167.76868 | 2775 ft | 171 kts | 72° |
| 2026-04-28 01:02 | 8.73601 | 167.78020 | 3442 ft | 183 kts | 72° |
| 2026-04-28 01:02 | 8.74024 | 167.79280 | 4074 ft | 199 kts | 75° |
| 2026-04-28 01:03 | 8.74017 | 167.80722 | 4643 ft | 222 kts | 107° |
| 2026-04-28 01:03 | 8.73011 | 167.81984 | 5310 ft | 247 kts | 140° |
| 2026-04-28 01:03 | 8.71488 | 167.82916 | 5968 ft | 266 kts | 146° |
| 2026-04-28 01:03 | 8.69827 | 167.83862 | 6716 ft | 277 kts | 144° |
| 2026-04-28 01:04 | 8.68296 | 167.84998 | 7591 ft | 279 kts | 134° |
| 2026-04-28 01:04 | 8.66982 | 167.86432 | 8510 ft | 279 kts | 124° |
| 2026-04-28 01:04 | 8.65910 | 167.88089 | 9367 ft | 282 kts | 116° |
| 2026-04-28 01:04 | 8.65011 | 167.89850 | 10233 ft | 286 kts | 112° |
| 2026-04-28 01:05 | 8.64141 | 167.91715 | 10812 ft | 300 kts | 112° |
| 2026-04-28 01:05 | 8.63242 | 167.93654 | 11328 ft | 316 kts | 113° |
| 2026-04-28 01:05 | 8.62282 | 167.95708 | 11932 ft | 327 kts | 113° |
| 2026-04-28 01:05 | 8.61297 | 167.97800 | 12719 ft | 331 kts | 115° |
| 2026-04-28 01:06 | 8.60276 | 167.99904 | 13561 ft | 334 kts | 115° |
| 2026-04-28 01:06 | 8.59303 | 168.02045 | 14212 ft | 342 kts | 114° |
| 2026-04-28 01:06 | 8.58316 | 168.04236 | 15118 ft | 339 kts | 114° |
| 2026-04-28 01:06 | 8.57314 | 168.06360 | 15924 ft | 340 kts | 115° |
| 2026-04-28 01:07 | 8.56264 | 168.08539 | 16462 ft | 349 kts | 114° |
| 2026-04-28 01:07 | 8.55221 | 168.10776 | 17012 ft | 355 kts | 115° |
| 2026-04-28 01:07 | 8.54139 | 168.13016 | 17802 ft | 353 kts | 116° |
| 2026-04-28 01:07 | 8.53054 | 168.15227 | 18456 ft | 356 kts | 116° |
| 2026-04-28 01:08 | 8.51966 | 168.17485 | 19019 ft | 361 kts | 115° |
| 2026-04-28 01:08 | 8.50882 | 168.19765 | 19654 ft | 362 kts | 115° |
| 2026-04-28 01:08 | 8.49776 | 168.22099 | 20142 ft | 369 kts | 115° |
| 2026-04-28 01:08 | 8.48659 | 168.24471 | 20581 ft | 376 kts | 116° |
| 2026-04-28 01:09 | 8.47516 | 168.26886 | 21083 ft | 381 kts | 115° |
| 2026-04-28 01:09 | 8.46386 | 168.29263 | 21753 ft | 379 kts | 115° |
| 2026-04-28 01:09 | 8.45238 | 168.31700 | 22295 ft | 382 kts | 115° |
| 2026-04-28 01:09 | 8.44105 | 168.34114 | 22825 ft | 384 kts | 116° |
| 2026-04-28 01:10 | 8.42927 | 168.36597 | 23200 ft | 391 kts | 116° |
| 2026-04-28 01:10 | 8.41754 | 168.39059 | 23690 ft | 394 kts | 116° |
| 2026-04-28 01:10 | 8.40551 | 168.41582 | 24270 ft | 395 kts | 116° |
| 2026-04-28 01:10 | 8.39348 | 168.44110 | 24694 ft | 400 kts | 116° |
| 2026-04-28 01:11 | 8.38133 | 168.46663 | 25200 ft | 402 kts | 116° |
| 2026-04-28 01:11 | 8.36912 | 168.49228 | 25654 ft | 405 kts | 116° |
| 2026-04-28 01:11 | 8.35680 | 168.51820 | 26039 ft | 410 kts | 116° |
| 2026-04-28 01:11 | 8.34438 | 168.54436 | 26592 ft | 410 kts | 116° |
| 2026-04-28 01:12 | 8.33204 | 168.57036 | 27184 ft | 408 kts | 116° |
| 2026-04-28 01:12 | 8.31984 | 168.59604 | 27777 ft | 406 kts | 116° |
| 2026-04-28 01:12 | 8.30762 | 168.62177 | 28338 ft | 404 kts | 116° |
| 2026-04-28 01:12 | 8.29549 | 168.64731 | 28803 ft | 404 kts | 116° |
| 2026-04-28 01:13 | 8.28332 | 168.67310 | 28862 ft | 408 kts | 116° |
| 2026-04-28 01:13 | 8.24749 | 168.75053 | 28870 ft | 403 kts | 116° |
| 2026-04-28 01:14 | 8.22401 | 168.80222 | 28872 ft | 407 kts | 116° |
| 2026-04-28 01:14 | 8.20017 | 168.85469 | 28867 ft | 405 kts | 116° |
| 2026-04-28 01:15 | 8.17628 | 168.90590 | 28866 ft | 406 kts | 116° |
| 2026-04-28 01:15 | 8.15222 | 168.95747 | 28868 ft | 406 kts | 116° |
| 2026-04-28 01:16 | 8.12828 | 169.00903 | 28866 ft | 405 kts | 116° |
| 2026-04-28 01:16 | 8.10444 | 169.06044 | 28867 ft | 405 kts | 116° |
| 2026-04-28 01:17 | 8.08058 | 169.11197 | 28866 ft | 405 kts | 116° |
| 2026-04-28 01:17 | 8.05668 | 169.16350 | 28864 ft | 406 kts | 116° |
| 2026-04-28 01:18 | 8.03285 | 169.21493 | 28864 ft | 407 kts | 116° |
| 2026-04-28 01:18 | 8.00895 | 169.26657 | 28865 ft | 406 kts | 116° |
| 2026-04-28 01:19 | 7.98510 | 169.31807 | 28869 ft | 406 kts | 116° |
| 2026-04-28 01:19 | 7.96114 | 169.36972 | 28869 ft | 407 kts | 116° |
| 2026-04-28 01:20 | 7.93731 | 169.42113 | 28871 ft | 405 kts | 116° |
| 2026-04-28 01:20 | 7.91326 | 169.47299 | 28873 ft | 407 kts | 116° |
| 2026-04-28 01:21 | 7.88927 | 169.52464 | 28872 ft | 405 kts | 116° |
| 2026-04-28 01:21 | 7.86530 | 169.57625 | 28872 ft | 407 kts | 116° |
| 2026-04-28 01:22 | 7.84137 | 169.62779 | 28875 ft | 406 kts | 116° |
| 2026-04-28 01:22 | 7.81747 | 169.67925 | 28878 ft | 406 kts | 116° |
| 2026-04-28 01:23 | 7.79358 | 169.73065 | 28873 ft | 405 kts | 116° |
| 2026-04-28 01:23 | 7.77020 | 169.78099 | 28732 ft | 386 kts | 116° |
| 2026-04-28 01:24 | 7.75897 | 169.80518 | 28381 ft | 381 kts | 116° |
| 2026-04-28 01:24 | 7.74775 | 169.82933 | 27941 ft | 378 kts | 116° |
| 2026-04-28 01:24 | 7.73671 | 169.85312 | 27472 ft | 377 kts | 116° |
| 2026-04-28 01:24 | 7.72564 | 169.87694 | 26998 ft | 375 kts | 116° |
| 2026-04-28 01:25 | 7.71465 | 169.90056 | 26523 ft | 373 kts | 115° |
| 2026-04-28 01:25 | 7.70367 | 169.92416 | 26045 ft | 372 kts | 115° |
| 2026-04-28 01:25 | 7.69265 | 169.94783 | 25572 ft | 370 kts | 115° |
| 2026-04-28 01:25 | 7.68178 | 169.97118 | 25103 ft | 369 kts | 115° |
| 2026-04-28 01:26 | 7.67099 | 169.99432 | 24649 ft | 367 kts | 115° |
| 2026-04-28 01:26 | 7.66018 | 170.01753 | 24181 ft | 365 kts | 115° |
| 2026-04-28 01:26 | 7.64952 | 170.04045 | 23721 ft | 363 kts | 115° |
| 2026-04-28 01:26 | 7.63880 | 170.06346 | 23265 ft | 361 kts | 115° |
| 2026-04-28 01:27 | 7.62820 | 170.08620 | 22824 ft | 359 kts | 114° |
| 2026-04-28 01:27 | 7.61763 | 170.10889 | 22373 ft | 358 kts | 114° |
| 2026-04-28 01:27 | 7.60706 | 170.13158 | 21933 ft | 356 kts | 115° |
| 2026-04-28 01:27 | 7.59657 | 170.15408 | 21462 ft | 356 kts | 115° |
| 2026-04-28 01:28 | 7.58615 | 170.17645 | 21025 ft | 354 kts | 115° |
| 2026-04-28 01:28 | 7.57564 | 170.19900 | 20555 ft | 353 kts | 115° |
| 2026-04-28 01:28 | 7.56527 | 170.22125 | 20100 ft | 352 kts | 115° |
| 2026-04-28 01:28 | 7.55494 | 170.24342 | 19664 ft | 350 kts | 115° |
| 2026-04-28 01:29 | 7.54457 | 170.26566 | 19219 ft | 349 kts | 115° |
| 2026-04-28 01:29 | 7.53436 | 170.28752 | 18772 ft | 347 kts | 115° |
| 2026-04-28 01:29 | 7.52411 | 170.30948 | 18318 ft | 345 kts | 115° |
| 2026-04-28 01:29 | 7.51386 | 170.33142 | 17889 ft | 341 kts | 115° |
| 2026-04-28 01:30 | 7.50405 | 170.35243 | 17716 ft | 324 kts | 115° |
| 2026-04-28 01:30 | 7.49469 | 170.37251 | 17401 ft | 317 kts | 115° |
| 2026-04-28 01:30 | 7.48531 | 170.39264 | 16942 ft | 318 kts | 115° |
| 2026-04-28 01:30 | 7.47588 | 170.41284 | 16514 ft | 317 kts | 115° |
| 2026-04-28 01:31 | 7.46658 | 170.43277 | 16098 ft | 316 kts | 115° |
| 2026-04-28 01:31 | 7.45714 | 170.45302 | 15683 ft | 315 kts | 115° |
| 2026-04-28 01:31 | 7.44796 | 170.47266 | 15277 ft | 314 kts | 115° |
| 2026-04-28 01:31 | 7.43860 | 170.49269 | 14864 ft | 312 kts | 114° |
| 2026-04-28 01:32 | 7.42946 | 170.51225 | 14460 ft | 311 kts | 114° |
| 2026-04-28 01:32 | 7.42026 | 170.53194 | 14053 ft | 309 kts | 114° |
| 2026-04-28 01:32 | 7.41114 | 170.55142 | 13652 ft | 308 kts | 114° |
| 2026-04-28 01:32 | 7.40210 | 170.57079 | 13252 ft | 306 kts | 114° |
| 2026-04-28 01:33 | 7.39305 | 170.59016 | 12850 ft | 304 kts | 114° |
| 2026-04-28 01:33 | 7.38409 | 170.60931 | 12452 ft | 302 kts | 114° |
| 2026-04-28 01:33 | 7.37515 | 170.62845 | 12057 ft | 300 kts | 114° |
| 2026-04-28 01:33 | 7.36621 | 170.64757 | 11663 ft | 298 kts | 114° |
| 2026-04-28 01:34 | 7.35742 | 170.66634 | 11276 ft | 296 kts | 114° |
| 2026-04-28 01:34 | 7.34865 | 170.68509 | 10890 ft | 294 kts | 114° |
| 2026-04-28 01:34 | 7.33990 | 170.70381 | 10498 ft | 293 kts | 114° |
| 2026-04-28 01:34 | 7.33126 | 170.72232 | 10116 ft | 290 kts | 114° |
| 2026-04-28 01:35 | 7.32273 | 170.74054 | 9884 ft | 283 kts | 114° |
| 2026-04-28 01:35 | 7.31442 | 170.75829 | 9678 ft | 273 kts | 114° |
| 2026-04-28 01:35 | 7.30644 | 170.77533 | 9265 ft | 270 kts | 113° |
| 2026-04-28 01:35 | 7.29851 | 170.79230 | 8926 ft | 265 kts | 114° |
| 2026-04-28 01:36 | 7.29070 | 170.80901 | 8593 ft | 264 kts | 114° |
| 2026-04-28 01:36 | 7.28240 | 170.82552 | 8264 ft | 263 kts | 120° |
| 2026-04-28 01:36 | 7.27125 | 170.84009 | 7950 ft | 264 kts | 131° |
| 2026-04-28 01:36 | 7.25817 | 170.85310 | 7633 ft | 263 kts | 134° |
| 2026-04-28 01:37 | 7.24494 | 170.86578 | 7307 ft | 263 kts | 134° |
| 2026-04-28 01:37 | 7.23191 | 170.87874 | 6978 ft | 262 kts | 133° |
| 2026-04-28 01:37 | 7.21925 | 170.89169 | 6652 ft | 261 kts | 132° |
| 2026-04-28 01:37 | 7.20661 | 170.90480 | 6324 ft | 259 kts | 132° |
| 2026-04-28 01:38 | 7.19398 | 170.91792 | 5993 ft | 258 kts | 132° |
| 2026-04-28 01:38 | 7.18157 | 170.93080 | 5670 ft | 256 kts | 132° |
| 2026-04-28 01:38 | 7.16929 | 170.94353 | 5344 ft | 256 kts | 131° |
| 2026-04-28 01:38 | 7.15687 | 170.95636 | 5023 ft | 254 kts | 132° |
| 2026-04-28 01:39 | 7.14443 | 170.96924 | 4697 ft | 253 kts | 131° |
| 2026-04-28 01:39 | 7.13232 | 170.98180 | 4380 ft | 250 kts | 131° |
| 2026-04-28 01:39 | 7.12024 | 170.99432 | 4127 ft | 245 kts | 131° |
| 2026-04-28 01:39 | 7.10853 | 171.00642 | 4023 ft | 236 kts | 131° |
| 2026-04-28 01:40 | 7.09729 | 171.01805 | 3959 ft | 229 kts | 130° |
| 2026-04-28 01:40 | 7.08640 | 171.02931 | 3892 ft | 220 kts | 131° |
| 2026-04-28 01:40 | 7.07591 | 171.04031 | 3763 ft | 214 kts | 130° |
| 2026-04-28 01:40 | 7.06586 | 171.05122 | 3497 ft | 212 kts | 129° |
| 2026-04-28 01:41 | 7.05583 | 171.06227 | 3246 ft | 209 kts | 128° |
| 2026-04-28 01:41 | 7.04604 | 171.07297 | 3004 ft | 205 kts | 128° |
| 2026-04-28 01:41 | 7.03653 | 171.08330 | 2819 ft | 199 kts | 128° |
| 2026-04-28 01:41 | 7.02808 | 171.09386 | 2689 ft | 188 kts | 116° |
| 2026-04-28 01:42 | 7.02494 | 171.10600 | 2584 ft | 175 kts | 86° |
| 2026-04-28 01:42 | 7.02755 | 171.11771 | 2474 ft | 166 kts | 75° |
| 2026-04-28 01:42 | 7.03041 | 171.12857 | 2345 ft | 158 kts | 78° |
| 2026-04-28 01:42 | 7.03279 | 171.13921 | 2191 ft | 153 kts | 78° |
| 2026-04-28 01:43 | 7.03528 | 171.14957 | 2031 ft | 150 kts | 77° |
| 2026-04-28 01:43 | 7.03775 | 171.15939 | 1897 ft | 140 kts | 77° |
| 2026-04-28 01:43 | 7.03995 | 171.16849 | 1804 ft | 129 kts | 76° |
| 2026-04-28 01:43 | 7.04218 | 171.17735 | 1661 ft | 131 kts | 77° |
| 2026-04-28 01:44 | 7.04431 | 171.18630 | 1479 ft | 129 kts | 78° |
| 2026-04-28 01:44 | 7.04640 | 171.19511 | 1305 ft | 130 kts | 77° |
| 2026-04-28 01:44 | 7.04857 | 171.20413 | 1129 ft | 133 kts | 77° |
| 2026-04-28 01:44 | 7.05082 | 171.21317 | 950 ft | 135 kts | 77° |
| 2026-04-28 01:45 | 7.05319 | 171.22238 | 764 ft | 136 kts | 77° |
| 2026-04-28 01:45 | 7.05547 | 171.23173 | 578 ft | 136 kts | 79° |
| 2026-04-28 01:45 | 7.05756 | 171.24098 | 393 ft | 137 kts | 78° |
| 2026-04-28 01:45 | 7.05973 | 171.25047 | 202 ft | 138 kts | 78° |
| 2026-04-28 01:46 | 7.06205 | 171.25975 | 66 ft | 136 kts | 78° |
| 2026-04-28 01:46 | 7.06420 | 171.26836 | 17 ft | 113 kts | 79° |
| 2026-04-28 01:46 | 7.06534 | 171.27364 | 20 ft | 46 kts | 78° |
| 2026-04-28 01:46 | 7.06590 | 171.27579 | 24 ft | 24 kts | 74° |
| 2026-04-28 01:47 | 7.06630 | 171.27737 | 24 ft | 22 kts | 77° |
| 2026-04-28 01:47 | 7.06672 | 171.27885 | 21 ft | 22 kts | 75° |
| 2026-04-28 01:47 | 7.06707 | 171.28029 | 17 ft | 16 kts | 77° |
| 2026-04-28 01:47 | 7.06782 | 171.28078 | 17 ft | 12 kts | 5° |
| 2026-04-28 01:48 | 7.06834 | 171.28108 | 17 ft | 8 kts | 63° |
| 2026-04-28 01:48 | 7.06849 | 171.28159 | 17 ft | 6 kts | 77° |
| 2026-04-28 01:48 | 7.06853 | 171.28177 | 18 ft | 0 kts | 77° |